createdAt,value
2022-11-23T00:00:32.021Z,18.50
2022-11-23T00:02:59.817Z,18.50
2022-11-23T00:05:28.176Z,18.50
2022-11-23T00:07:54.920Z,18.50
2022-11-23T00:10:22.256Z,18.50
2022-11-23T00:12:48.867Z,18.50
2022-11-23T00:15:16.026Z,18.50
2022-11-23T00:17:42.582Z,18.50
2022-11-23T00:20:09.505Z,18.50
2022-11-23T00:22:36.037Z,18.50
2022-11-23T00:25:02.765Z,18.50
2022-11-23T00:27:29.458Z,18.50
2022-11-23T00:29:55.973Z,18.50
2022-11-23T00:32:22.734Z,18.50
2022-11-23T00:34:49.340Z,18.50
2022-11-23T00:37:17.044Z,18.50
2022-11-23T00:42:15.078Z,18.50
2022-11-23T00:44:41.664Z,18.50
2022-11-23T00:47:08.238Z,18.50
2022-11-23T00:49:34.806Z,18.50
2022-11-23T00:52:01.446Z,18.50
2022-11-23T00:54:27.974Z,18.50
2022-11-23T00:56:54.505Z,18.50
2022-11-23T00:59:21.138Z,18.50
2022-11-23T01:01:49.397Z,18.50
2022-11-23T01:04:16.243Z,18.50
2022-11-23T01:06:42.771Z,18.50
2022-11-23T01:09:24.857Z,18.50
2022-11-23T01:11:51.410Z,18.50
2022-11-23T01:14:17.979Z,18.50
2022-11-23T01:16:44.839Z,18.50
2022-11-23T01:19:14.405Z,18.50
2022-11-23T01:21:40.945Z,18.50
2022-11-23T01:24:20.343Z,18.50
2022-11-23T01:26:55.102Z,18.50
2022-11-23T01:31:54.616Z,18.50
2022-11-23T01:34:21.245Z,18.50
2022-11-23T01:36:47.845Z,18.50
2022-11-23T01:39:14.778Z,18.50
2022-11-23T01:41:43.560Z,18.50
2022-11-23T01:44:26.571Z,18.50
2022-11-23T01:46:53.844Z,18.50
2022-11-23T01:49:21.279Z,18.50
2022-11-23T01:51:51.233Z,18.50
2022-11-23T01:54:22.841Z,18.50
2022-11-23T01:57:12.270Z,18.50
2022-11-23T01:59:38.928Z,18.50
2022-11-23T02:04:43.236Z,18.50
2022-11-23T02:07:10.546Z,18.50
2022-11-23T02:12:13.610Z,18.50
2022-11-23T02:14:41.826Z,18.50
2022-11-23T02:17:09.062Z,18.50
2022-11-23T02:22:14.222Z,18.50
2022-11-23T02:24:48.999Z,18.50
2022-11-23T02:29:49.909Z,18.50
2022-11-23T02:32:23.401Z,18.50
2022-11-23T02:34:50.773Z,18.50
2022-11-23T02:37:18.589Z,18.50
2022-11-23T02:39:49.045Z,18.50
2022-11-23T02:50:08.873Z,18.50
2022-11-23T02:57:38.680Z,18.50
2022-11-23T03:05:09.267Z,18.50
2022-11-23T03:10:08.152Z,18.50
2022-11-23T03:17:38.199Z,18.40
2022-11-23T03:25:08.437Z,18.50
2022-11-23T03:30:08.553Z,18.50
2022-11-23T03:35:07.956Z,18.50
2022-11-23T03:42:40.244Z,18.40
2022-11-23T03:45:08.010Z,18.40
2022-11-23T03:52:38.404Z,18.40
2022-11-23T04:00:09.208Z,18.40
2022-11-23T04:05:07.997Z,18.40
2022-11-23T04:12:37.977Z,18.40
2022-11-23T04:20:08.552Z,18.50
2022-11-23T04:27:38.863Z,18.40
2022-11-23T04:35:09.129Z,18.40
2022-11-23T04:42:39.257Z,18.40
2022-11-23T04:47:38.115Z,18.40
2022-11-23T04:55:08.323Z,18.40
2022-11-23T05:02:38.497Z,18.40
2022-11-23T05:10:09.012Z,18.40
2022-11-23T05:15:08.345Z,18.40
2022-11-23T05:22:39.232Z,18.40
2022-11-23T05:27:38.061Z,18.40
2022-11-23T05:30:05.137Z,18.40
2022-11-23T05:32:31.690Z,18.40
2022-11-23T05:34:58.229Z,18.40
2022-11-23T05:37:24.750Z,18.40
2022-11-23T05:39:51.276Z,18.40
2022-11-23T05:42:17.855Z,18.40
2022-11-23T05:44:44.439Z,18.40
2022-11-23T05:49:42.518Z,18.40
2022-11-23T05:52:09.163Z,18.40
2022-11-23T05:54:35.733Z,18.40
2022-11-23T05:57:02.270Z,18.40
2022-11-23T05:59:28.818Z,18.40
2022-11-23T06:01:55.426Z,18.40
2022-11-23T06:04:22.065Z,18.40
2022-11-23T06:06:48.716Z,18.40
2022-11-23T06:09:15.521Z,18.40
2022-11-23T06:11:42.337Z,18.40
2022-11-23T06:14:12.862Z,18.40
2022-11-23T06:19:12.549Z,18.40
2022-11-23T06:21:39.180Z,18.40
2022-11-23T06:24:06.187Z,18.40
2022-11-23T06:26:32.761Z,18.40
2022-11-23T06:28:59.350Z,18.40
2022-11-23T06:31:25.934Z,18.40
2022-11-23T06:33:52.896Z,18.40
2022-11-23T06:36:19.609Z,18.40
2022-11-23T06:38:46.280Z,18.40
2022-11-23T06:41:12.922Z,18.40
2022-11-23T06:43:39.472Z,18.40
2022-11-23T06:46:07.524Z,18.40
2022-11-23T06:48:34.250Z,18.10
2022-11-23T06:51:01.627Z,17.40
2022-11-23T06:56:01.393Z,16.80
2022-11-23T07:08:43.893Z,17.90
2022-11-23T07:11:11.774Z,18.00
2022-11-23T07:18:41.835Z,18.10
2022-11-23T07:23:41.413Z,18.20
2022-11-23T07:31:12.444Z,18.20
2022-11-23T07:38:42.418Z,18.30
2022-11-23T07:41:09.002Z,18.30
2022-11-23T07:43:35.625Z,18.30
2022-11-23T07:46:02.251Z,18.30
2022-11-23T07:48:31.926Z,18.30
2022-11-23T07:51:02.615Z,18.30
2022-11-23T07:53:29.287Z,18.30
2022-11-23T07:55:57.871Z,18.30
2022-11-23T07:58:25.124Z,18.30
2022-11-23T08:00:51.700Z,18.40
2022-11-23T08:03:33.891Z,18.40
2022-11-23T08:06:00.622Z,18.40
2022-11-23T08:08:27.245Z,18.40
2022-11-23T08:10:54.733Z,18.40
2022-11-23T08:13:22.329Z,18.40
2022-11-23T08:18:22.695Z,18.40
2022-11-23T08:25:52.546Z,18.40
2022-11-23T08:30:51.320Z,18.40
2022-11-23T08:33:17.914Z,18.50
2022-11-23T08:35:44.469Z,18.50
2022-11-23T08:38:11.500Z,18.50
2022-11-23T08:45:41.631Z,18.50
2022-11-23T08:53:11.993Z,18.50
2022-11-23T09:00:42.390Z,18.50
2022-11-23T09:05:38.053Z,18.50
2022-11-23T09:18:11.831Z,18.60
2022-11-23T09:23:14.416Z,18.60
2022-11-23T09:36:01.865Z,18.60
2022-11-23T09:41:23.627Z,18.60
2022-11-23T09:44:04.909Z,18.60
2022-11-23T09:49:51.952Z,18.70
2022-11-23T09:52:21.614Z,18.70
2022-11-23T09:54:51.481Z,18.70
2022-11-23T11:06:25.474Z,18.90
2022-11-23T11:09:03.239Z,18.90
2022-11-23T11:11:37.266Z,18.90
2022-11-23T11:14:23.317Z,18.90
2022-11-23T11:16:55.442Z,18.90
2022-11-23T11:19:31.262Z,18.90
2022-11-23T11:21:59.476Z,19.00
2022-11-23T11:24:31.785Z,19.00
2022-11-23T11:27:01.941Z,19.00
2022-11-23T11:29:43.685Z,19.00
2022-11-23T11:32:17.297Z,19.00
2022-11-23T11:34:55.423Z,19.00
2022-11-23T11:37:36.330Z,19.10
2022-11-23T11:40:17.902Z,19.00
2022-11-23T11:42:53.405Z,19.10
2022-11-23T11:45:27.214Z,19.10
2022-11-23T11:48:12.278Z,19.10
2022-11-23T11:50:57.402Z,19.10
2022-11-23T11:53:39.464Z,19.10
2022-11-23T11:56:35.646Z,19.10
2022-11-23T11:59:44.323Z,19.10
2022-11-23T12:02:55.262Z,19.10
2022-11-23T12:05:46.150Z,19.10
2022-11-23T12:11:02.439Z,19.10
2022-11-23T12:19:07.999Z,19.20
2022-11-23T12:21:54.338Z,19.20
2022-11-23T12:24:41.105Z,19.10
2022-11-23T12:27:20.784Z,19.20
2022-11-23T12:30:03.430Z,19.20
2022-11-23T12:35:41.414Z,19.20
2022-11-23T12:38:27.141Z,19.20
2022-11-23T12:41:21.690Z,19.20
2022-11-23T12:44:42.352Z,19.20
2022-11-23T12:47:37.652Z,19.20
2022-11-23T12:52:52.881Z,19.20
2022-11-23T12:55:37.037Z,19.20
2022-11-23T12:58:30.465Z,19.20
2022-11-23T13:03:41.809Z,19.20
2022-11-23T13:07:12.389Z,19.30
2022-11-23T13:09:50.608Z,19.20
2022-11-23T13:12:35.768Z,19.30
2022-11-23T13:15:27.199Z,19.30
2022-11-23T13:20:34.065Z,19.30
2022-11-23T13:23:01.444Z,19.30
2022-11-23T13:31:16.888Z,19.30
2022-11-23T13:33:46.107Z,19.30
2022-11-23T13:36:49.329Z,19.30
2022-11-23T13:39:44.967Z,19.30
2022-11-23T13:42:12.527Z,19.30
2022-11-23T13:44:39.364Z,19.30
2022-11-23T13:50:07.369Z,19.40
2022-11-23T13:52:36.158Z,19.40
2022-11-23T13:55:11.671Z,19.40
2022-11-23T13:57:40.097Z,19.40
2022-11-23T14:09:50.643Z,19.40
2022-11-23T14:15:19.943Z,19.40
2022-11-23T14:18:01.479Z,19.40
2022-11-23T14:21:01.676Z,19.40
2022-11-23T14:29:55.790Z,19.40
2022-11-23T14:32:41.289Z,19.40
2022-11-23T14:35:17.208Z,19.40
2022-11-23T14:38:12.195Z,19.40
2022-11-23T14:40:53.321Z,19.40
2022-11-23T14:43:21.019Z,19.40
2022-11-23T14:51:23.569Z,19.40
2022-11-23T14:54:00.064Z,19.40
2022-11-23T15:01:51.581Z,19.40
2022-11-23T15:04:35.088Z,19.40
2022-11-23T15:07:18.052Z,19.40
2022-11-23T15:09:54.124Z,19.40
2022-11-23T15:17:30.129Z,19.40
2022-11-23T15:20:00.860Z,19.40
2022-11-23T15:25:10.505Z,19.30
2022-11-23T15:27:41.207Z,19.30
2022-11-23T15:30:17.310Z,19.30
2022-11-23T15:32:44.110Z,19.30
2022-11-23T15:35:14.380Z,19.30
2022-11-23T15:37:47.188Z,19.30
2022-11-23T15:42:51.355Z,19.30
2022-11-23T15:56:32.408Z,19.40
2022-11-23T15:59:05.556Z,19.40
2022-11-23T16:01:32.184Z,19.40
2022-11-23T16:04:04.597Z,19.40
2022-11-23T16:06:41.491Z,19.40
2022-11-23T16:09:52.675Z,19.40
2022-11-23T16:12:30.845Z,19.40
2022-11-23T16:15:19.227Z,19.40
2022-11-23T16:20:14.971Z,19.40
2022-11-23T16:25:32.319Z,19.40
2022-11-23T16:28:14.095Z,19.40
2022-11-23T16:30:43.037Z,19.40
2022-11-23T16:33:20.049Z,19.40
2022-11-23T16:38:19.880Z,19.50
2022-11-23T16:43:19.857Z,19.50
2022-11-23T16:45:50.426Z,19.50
2022-11-23T16:53:53.470Z,19.50
2022-11-23T16:56:26.033Z,19.50
2022-11-23T16:58:53.483Z,19.50
2022-11-23T17:01:28.233Z,19.50
2022-11-23T17:03:55.064Z,19.50
2022-11-23T17:06:25.044Z,19.50
2022-11-23T17:08:59.571Z,19.50
2022-11-23T17:11:29.929Z,19.50
2022-11-23T17:19:01.266Z,19.50
2022-11-23T17:31:51.070Z,19.60
2022-11-23T17:36:51.325Z,19.50
2022-11-23T17:39:22.598Z,19.50
2022-11-23T17:44:20.811Z,19.50
2022-11-23T17:49:21.053Z,19.50
2022-11-23T17:51:47.601Z,19.50
2022-11-23T17:54:14.122Z,19.50
2022-11-23T17:56:40.663Z,19.50
2022-11-23T17:59:07.595Z,19.60
2022-11-23T18:01:34.267Z,19.60
2022-11-23T18:04:01.290Z,19.60
2022-11-23T18:06:29.379Z,19.60
2022-11-23T18:08:56.121Z,19.60
2022-11-23T18:11:23.125Z,19.60
2022-11-23T18:13:50.616Z,19.60
2022-11-23T18:16:35.267Z,19.60
2022-11-23T18:19:01.880Z,19.60
2022-11-23T18:21:28.496Z,19.60
2022-11-23T18:23:57.064Z,19.60
2022-11-23T18:26:27.195Z,19.60
2022-11-23T18:28:54.219Z,19.60
2022-11-23T18:31:20.908Z,19.60
2022-11-23T18:33:48.156Z,19.60
2022-11-23T18:36:14.804Z,19.60
2022-11-23T18:38:44.648Z,19.70
2022-11-23T18:41:12.226Z,19.70
2022-11-23T18:43:38.863Z,19.70
2022-11-23T18:46:08.074Z,19.70
2022-11-23T18:48:34.716Z,19.70
2022-11-23T18:51:01.492Z,19.70
2022-11-23T18:53:28.183Z,19.70
2022-11-23T18:56:00.134Z,19.70
2022-11-23T18:58:32.535Z,19.70
2022-11-23T19:00:59.315Z,19.70
2022-11-23T19:03:25.922Z,19.70
2022-11-23T19:05:52.491Z,19.70
2022-11-23T19:08:19.080Z,19.70
2022-11-23T19:10:45.639Z,19.70
2022-11-23T19:13:12.177Z,19.60
2022-11-23T19:15:38.794Z,19.60
2022-11-23T19:18:05.795Z,19.60
2022-11-23T19:20:32.718Z,19.60
2022-11-23T19:22:59.259Z,19.60
2022-11-23T19:25:25.808Z,19.60
2022-11-23T19:27:52.905Z,19.60
2022-11-23T19:30:19.440Z,19.60
2022-11-23T19:32:46.032Z,19.60
2022-11-23T19:35:12.998Z,19.60
2022-11-23T19:37:39.740Z,19.60
2022-11-23T19:40:06.963Z,19.60
2022-11-23T19:42:36.642Z,19.60
2022-11-23T19:45:04.505Z,19.60
2022-11-23T19:47:34.176Z,19.60
2022-11-23T19:50:00.700Z,19.50
2022-11-23T19:52:55.481Z,19.50
2022-11-23T19:55:16.884Z,19.60
2022-11-23T19:57:43.499Z,19.50
2022-11-23T20:00:10.686Z,19.50
2022-11-23T20:02:37.625Z,19.50
2022-11-23T20:05:04.488Z,19.50
2022-11-23T20:07:31.540Z,19.50
2022-11-23T20:09:58.125Z,19.50
2022-11-23T20:12:24.637Z,19.50
2022-11-23T20:14:51.236Z,19.50
2022-11-23T20:17:17.915Z,19.50
2022-11-23T20:19:44.474Z,19.50
2022-11-23T20:22:11.072Z,19.50
2022-11-23T20:24:38.309Z,19.50
2022-11-23T20:27:04.892Z,19.50
2022-11-23T20:29:31.713Z,19.50
2022-11-23T20:31:58.530Z,19.40
2022-11-23T20:34:26.390Z,19.40
2022-11-23T20:36:53.233Z,19.40
2022-11-23T20:39:19.813Z,19.40
2022-11-23T20:41:49.178Z,19.40
2022-11-23T20:44:15.839Z,19.40
2022-11-23T20:47:01.437Z,19.40
2022-11-23T20:49:29.865Z,19.40
2022-11-23T20:51:56.887Z,19.40
2022-11-23T20:54:23.457Z,19.40
2022-11-23T20:56:50.044Z,19.40
2022-11-23T20:59:17.144Z,19.40
2022-11-23T21:01:43.754Z,19.40
2022-11-23T21:04:10.630Z,19.40
2022-11-23T21:06:39.846Z,19.40
2022-11-23T21:09:08.732Z,19.40
2022-11-23T21:11:53.926Z,19.40
2022-11-23T21:14:27.174Z,19.40
2022-11-23T21:16:56.691Z,19.40
2022-11-23T21:19:25.454Z,19.40
2022-11-23T21:21:52.933Z,19.40
2022-11-23T21:24:19.856Z,19.30
2022-11-23T21:26:47.066Z,19.40
2022-11-23T21:29:13.681Z,19.40
2022-11-23T21:31:43.346Z,19.40
2022-11-23T21:34:30.734Z,19.40
2022-11-23T21:36:58.000Z,19.30
2022-11-23T21:39:25.051Z,19.30
2022-11-23T21:41:53.300Z,19.30
2022-11-23T21:44:20.537Z,19.30
2022-11-23T21:46:47.191Z,19.30
2022-11-23T21:49:13.844Z,19.30
2022-11-23T21:51:42.415Z,19.30
2022-11-23T21:54:13.685Z,19.30
2022-11-23T21:56:41.159Z,19.30
2022-11-23T21:59:08.529Z,19.30
2022-11-23T22:01:36.646Z,19.30
2022-11-23T22:04:05.654Z,19.30
2022-11-23T22:06:32.562Z,19.30
2022-11-23T22:09:04.643Z,19.30
2022-11-23T22:11:33.250Z,19.30
2022-11-23T22:14:05.703Z,19.30
2022-11-23T22:16:34.644Z,19.30
2022-11-23T22:19:01.577Z,19.30
2022-11-23T22:21:32.696Z,19.30
2022-11-23T22:24:00.246Z,19.30
2022-11-23T22:26:30.221Z,19.30
2022-11-23T22:29:02.150Z,19.30
2022-11-23T22:31:33.766Z,19.30
2022-11-23T22:34:02.090Z,19.30
2022-11-23T22:36:29.269Z,19.30
2022-11-23T22:39:02.396Z,19.30
2022-11-23T22:41:30.861Z,19.20
2022-11-23T22:43:57.489Z,19.30
2022-11-23T22:46:25.512Z,19.20
2022-11-23T22:48:53.009Z,19.20
2022-11-23T22:51:22.101Z,19.20
2022-11-23T22:53:53.776Z,19.20
2022-11-23T22:56:21.163Z,19.20
2022-11-23T22:58:48.618Z,19.20
2022-11-23T23:01:20.540Z,19.20
2022-11-23T23:03:47.841Z,19.20
2022-11-23T23:06:17.063Z,19.20
2022-11-23T23:08:45.464Z,19.20
2022-11-23T23:11:13.392Z,19.20
2022-11-23T23:13:40.424Z,19.20
2022-11-23T23:16:10.553Z,19.20
2022-11-23T23:18:37.555Z,19.20
2022-11-23T23:21:10.820Z,19.20
2022-11-23T23:23:38.730Z,19.20
2022-11-23T23:26:06.265Z,19.20
2022-11-23T23:28:33.406Z,19.20
2022-11-23T23:31:04.796Z,19.20
2022-11-23T23:33:33.205Z,19.20
2022-11-23T23:36:10.877Z,19.20
2022-11-23T23:38:37.940Z,19.20
2022-11-23T23:41:05.964Z,19.20
2022-11-23T23:43:32.789Z,19.20
2022-11-23T23:46:01.224Z,19.20
2022-11-23T23:48:33.536Z,19.20
2022-11-23T23:51:07.659Z,19.20
2022-11-23T23:53:35.341Z,19.20
2022-11-23T23:56:07.585Z,19.20
2022-11-23T23:58:34.850Z,19.20
